Time;durP1;ratioP1;P1;durP2;ratioP2;P2;SDS_P1;SDS_P2;PMS_P1;PMS_P2;Temp;Humidity;BMP_temperature;BMP_pressure;BME280_temperature;BME280_humidity;BME280_pressure;Samples;Min_cycle;Max_cycle;Signal;HPM_P1;HPM_P2
2023/12/10 00:01:38;;;;;;;14.77;8.43;;;0.90;1.00;;;;;;5180158;28;20037;-48
2023/12/10 00:04:09;;;;;;;21.23;9.35;;;0.90;1.00;;;;;;5198410;28;20198;-50
2023/12/10 00:06:40;;;;;;;20.10;8.75;;;0.90;1.00;;;;;;5208405;28;20221;-50
2023/12/10 00:09:14;;;;;;;22.30;10.23;;;0.80;1.00;;;;;;5202926;28;20287;-48
2023/12/10 00:11:52;;;;;;;22.45;8.88;;;0.80;1.00;;;;;;5181935;28;20040;-48
2023/12/10 00:14:27;;;;;;;20.17;10.02;;;0.80;1.00;;;;;;5182162;28;20134;-49
2023/12/10 00:17:00;;;;;;;23.10;10.27;;;0.90;1.00;;;;;;5204904;28;20033;-50
2023/12/10 00:19:37;;;;;;;23.02;9.00;;;0.80;1.00;;;;;;5215632;28;20107;-48
2023/12/10 00:22:08;;;;;;;24.45;10.82;;;0.80;1.00;;;;;;5200184;28;20033;-48
2023/12/10 00:24:42;;;;;;;24.83;10.80;;;0.90;1.00;;;;;;5196034;28;20040;-48
2023/12/10 00:27:13;;;;;;;;;;;0.90;1.00;;;;;;5197730;28;20221;-48
2023/12/10 00:29:47;;;;;;;20.80;9.68;;;0.90;1.00;;;;;;5191979;28;19916;-48
2023/12/10 00:32:18;;;;;;;26.48;11.07;;;0.90;1.00;;;;;;5188061;28;20215;-48
2023/12/10 00:34:49;;;;;;;25.92;9.65;;;0.90;1.00;;;;;;5190412;28;20225;-48
2023/12/10 00:37:21;;;;;;;21.33;10.00;;;0.90;1.00;;;;;;5211318;28;20029;-50
2023/12/10 00:39:52;;;;;;;23.42;11.45;;;0.90;1.00;;;;;;5196437;28;20321;-48
2023/12/10 00:42:23;;;;;;;23.13;10.43;;;1.00;1.00;;;;;;5196886;28;20033;-47
2023/12/10 00:45:00;;;;;;;26.40;11.15;;;0.90;1.00;;;;;;5175258;28;20030;-48
2023/12/10 00:47:31;;;;;;;24.35;11.10;;;0.90;1.00;;;;;;5182111;28;20144;-47
2023/12/10 00:50:03;;;;;;;23.17;10.30;;;1.00;1.00;;;;;;5186292;28;20056;-48
2023/12/10 00:52:36;;;;;;;22.00;9.75;;;1.00;1.00;;;;;;5198580;28;20021;-48
2023/12/10 00:55:13;;;;;;;24.40;10.05;;;1.00;1.00;;;;;;5193487;28;20029;-49
2023/12/10 00:57:45;;;;;;;26.58;11.77;;;0.90;1.00;;;;;;5197370;28;20029;-48
2023/12/10 01:00:17;;;;;;;19.88;10.38;;;0.90;1.00;;;;;;5185983;28;20301;-48
2023/12/10 01:02:52;;;;;;;16.10;7.57;;;0.90;1.00;;;;;;5197248;28;20038;-47
2023/12/10 01:05:23;;;;;;;18.58;9.05;;;0.80;1.00;;;;;;5181885;28;20368;-48
2023/12/10 01:07:59;;;;;;;28.27;9.82;;;0.80;1.00;;;;;;5185643;28;20442;-45
2023/12/10 01:10:31;;;;;;;17.95;10.25;;;0.90;1.00;;;;;;5196033;28;20048;-45
2023/12/10 01:13:04;;;;;;;24.33;10.18;;;0.90;1.00;;;;;;5193891;28;20037;-45
2023/12/10 01:15:38;;;;;;;25.55;10.60;;;0.90;1.00;;;;;;5194652;28;20049;-46
2023/12/10 01:18:10;;;;;;;24.60;11.25;;;1.00;1.00;;;;;;5212195;28;20030;-48
2023/12/10 01:20:43;;;;;;;17.38;9.23;;;0.90;1.00;;;;;;5196163;28;20321;-45
2023/12/10 01:23:18;;;;;;;21.83;10.40;;;0.80;1.00;;;;;;5188272;28;20043;-45
2023/12/10 01:25:52;;;;;;;22.70;10.10;;;0.90;1.00;;;;;;5206678;28;20042;-45
2023/12/10 01:28:27;;;;;;;19.42;8.60;;;0.80;1.00;;;;;;5190523;28;20029;-45
2023/12/10 01:31:02;;;;;;;23.45;11.20;;;0.80;1.00;;;;;;5193226;28;20353;-46
2023/12/10 01:33:35;;;;;;;28.30;11.05;;;0.90;1.00;;;;;;5189440;28;20037;-45
2023/12/10 01:36:07;;;;;;;27.40;9.70;;;0.90;1.00;;;;;;5200052;28;20063;-48
2023/12/10 01:38:41;;;;;;;27.27;10.75;;;0.80;1.00;;;;;;5199569;28;20344;-45
2023/12/10 01:41:13;;;;;;;23.65;11.18;;;0.90;1.00;;;;;;5200281;28;20034;-45
2023/12/10 01:43:44;;;;;;;25.95;10.45;;;0.90;1.00;;;;;;5198715;28;20060;-43
2023/12/10 01:46:16;;;;;;;21.33;10.52;;;0.80;1.00;;;;;;5218832;28;20291;-44
2023/12/10 01:48:51;;;;;;;28.23;11.45;;;0.80;8.20;;;;;;5201022;28;20206;-44
2023/12/10 01:51:26;;;;;;;24.88;11.00;;;0.90;14.90;;;;;;5206398;28;20056;-44
2023/12/10 01:53:57;;;;;;;27.23;10.68;;;0.90;21.50;;;;;;5213556;28;20032;-45
2023/12/10 01:56:32;;;;;;;24.00;11.43;;;0.80;19.00;;;;;;5214391;28;20030;-44
2023/12/10 01:59:03;;;;;;;25.95;11.48;;;0.80;40.70;;;;;;5192302;28;20148;-45
2023/12/10 02:01:40;;;;;;;29.23;12.55;;;0.70;70.10;;;;;;5195670;28;20207;-45
2023/12/10 02:04:12;;;;;;;23.83;10.38;;;0.80;88.50;;;;;;5210253;28;20300;-45
2023/12/10 02:06:44;;;;;;;30.27;11.85;;;0.70;82.20;;;;;;5186141;28;20270;-46
2023/12/10 02:09:18;;;;;;;24.50;12.45;;;0.70;99.90;;;;;;5205962;28;20052;-45
2023/12/10 02:11:50;;;;;;;;;;;0.70;99.90;;;;;;5179449;28;20311;-46
2023/12/10 02:14:21;;;;;;;31.95;12.57;;;0.70;99.90;;;;;;5187981;28;20176;-45
2023/12/10 02:16:52;;;;;;;28.27;12.43;;;0.60;99.90;;;;;;5215193;28;20035;-47
2023/12/10 02:19:23;;;;;;;37.40;13.82;;;0.70;99.90;;;;;;5200749;28;20039;-45
2023/12/10 02:21:58;;;;;;;27.65;12.52;;;0.70;99.90;;;;;;5204579;28;20048;-45
2023/12/10 02:24:54;;;;;;;24.77;12.40;;;0.80;99.90;;;;;;5192185;28;20025;-46
2023/12/10 02:27:26;;;;;;;30.58;13.35;;;0.60;99.90;;;;;;5195368;28;20041;-45
2023/12/10 02:30:00;;;;;;;32.53;13.85;;;0.70;99.90;;;;;;5197459;28;20206;-47
2023/12/10 02:32:31;;;;;;;34.95;13.10;;;0.60;99.90;;;;;;5195066;28;20029;-47
2023/12/10 02:35:03;;;;;;;33.28;11.20;;;0.70;99.90;;;;;;5197563;28;20031;-47
2023/12/10 02:37:34;;;;;;;36.08;14.75;;;0.70;99.90;;;;;;5198499;28;20032;-47
2023/12/10 02:40:08;;;;;;;25.88;12.43;;;0.70;99.90;;;;;;5197395;28;20037;-47
2023/12/10 02:42:41;;;;;;;29.30;13.40;;;0.70;99.90;;;;;;5195496;28;20060;-47
2023/12/10 02:45:15;;;;;;;35.17;15.35;;;0.60;99.90;;;;;;5179727;28;20037;-47
2023/12/10 02:47:47;;;;;;;37.63;14.82;;;0.70;99.90;;;;;;5216290;28;20301;-47
2023/12/10 02:50:27;;;;;;;30.10;13.30;;;0.70;99.90;;;;;;5198554;28;20044;-47
2023/12/10 02:53:00;;;;;;;36.63;14.38;;;0.80;99.90;;;;;;5200661;28;20344;-48
2023/12/10 02:55:31;;;;;;;34.22;14.32;;;1.00;99.90;;;;;;5187556;28;20029;-50
2023/12/10 02:58:05;;;;;;;30.05;13.93;;;1.00;99.90;;;;;;5185953;28;20382;-50
2023/12/10 03:00:40;;;;;;;36.15;13.85;;;1.00;99.90;;;;;;5189515;28;20044;-50
2023/12/10 03:03:11;;;;;;;33.83;14.30;;;1.00;99.90;;;;;;5183217;28;20037;-49
2023/12/10 03:05:43;;;;;;;29.95;12.38;;;1.00;99.90;;;;;;5194247;28;20298;-49
2023/12/10 03:08:17;;;;;;;34.13;15.15;;;0.90;99.90;;;;;;5198798;28;20033;-49
2023/12/10 03:10:48;;;;;;;;;;;0.90;99.90;;;;;;5179598;28;20072;-49
2023/12/10 03:13:19;;;;;;;26.30;12.20;;;0.90;99.90;;;;;;5178317;28;20176;-49
2023/12/10 03:15:53;;;;;;;32.45;13.38;;;0.90;99.90;;;;;;5163446;28;20033;-50
2023/12/10 03:18:29;;;;;;;33.33;13.55;;;1.00;99.90;;;;;;5193656;28;20033;-50
2023/12/10 03:21:00;;;;;;;32.42;14.02;;;1.10;99.90;;;;;;5176775;28;20041;-49
2023/12/10 03:23:31;;;;;;;32.33;13.48;;;1.10;99.90;;;;;;5216807;28;20197;-49
2023/12/10 03:26:02;;;;;;;36.53;14.05;;;1.20;99.90;;;;;;5195470;28;20158;-50
2023/12/10 03:28:42;;;;;;;27.00;12.10;;;1.20;99.90;;;;;;5193348;28;20346;-51
2023/12/10 03:31:16;;;;;;;27.08;12.63;;;1.20;99.90;;;;;;5193893;28;20202;-51
2023/12/10 03:33:50;;;;;;;31.58;12.80;;;1.10;99.90;;;;;;5185783;28;20159;-52
2023/12/10 03:36:22;;;;;;;32.13;13.98;;;1.20;99.90;;;;;;5181033;28;20310;-51
2023/12/10 03:38:56;;;;;;;34.25;13.98;;;1.10;99.90;;;;;;5213357;28;20305;-52
2023/12/10 03:41:27;;;;;;;26.73;12.40;;;1.10;99.90;;;;;;5192819;28;20084;-52
2023/12/10 03:43:59;;;;;;;36.60;13.85;;;1.20;99.90;;;;;;5196748;28;20207;-51
2023/12/10 03:46:30;;;;;;;29.88;12.90;;;1.20;99.90;;;;;;5202430;28;20352;-51
2023/12/10 03:49:04;;;;;;;32.35;13.43;;;1.30;99.90;;;;;;5204440;28;20196;-51
2023/12/10 03:51:35;;;;;;;28.80;12.88;;;1.30;99.90;;;;;;5186983;28;20048;-51
2023/12/10 03:54:10;;;;;;;32.03;14.18;;;1.40;99.90;;;;;;5180216;28;20036;-50
2023/12/10 03:56:41;;;;;;;28.60;13.68;;;1.50;99.90;;;;;;5195290;28;20021;-50
2023/12/10 03:59:15;;;;;;;27.35;12.02;;;1.50;99.90;;;;;;5191526;28;20049;-52
2023/12/10 04:01:52;;;;;;;36.22;14.18;;;1.40;99.90;;;;;;5187597;28;20039;-53
2023/12/10 04:04:23;;;;;;;32.33;12.38;;;1.40;99.90;;;;;;5196223;28;20040;-56
2023/12/10 04:06:57;;;;;;;38.10;15.75;;;1.40;99.90;;;;;;5191546;28;20241;-49
2023/12/10 04:09:29;;;;;;;29.92;12.88;;;1.40;99.90;;;;;;5191486;28;20230;-49
2023/12/10 04:12:02;;;;;;;29.77;12.10;;;1.60;99.90;;;;;;5203043;28;20030;-48
2023/12/10 04:14:33;;;;;;;29.25;13.55;;;1.60;99.90;;;;;;5185685;28;20037;-50
2023/12/10 04:17:08;;;;;;;29.38;12.10;;;1.60;99.90;;;;;;5180105;28;20029;-50
2023/12/10 04:19:43;;;;;;;33.92;12.13;;;1.60;99.90;;;;;;5197301;28;20215;-48
2023/12/10 04:22:17;;;;;;;30.95;12.88;;;1.70;99.90;;;;;;5165324;28;20397;-53
2023/12/10 04:24:49;;;;;;;24.35;10.63;;;1.50;99.90;;;;;;5212402;28;20287;-54
2023/12/10 04:27:23;;;;;;;23.10;10.70;;;1.50;99.90;;;;;;5195268;28;20281;-57
2023/12/10 04:29:54;;;;;;;28.40;12.35;;;1.40;99.90;;;;;;5195338;28;20037;-62
2023/12/10 04:32:25;;;;;;;22.58;11.07;;;1.40;99.90;;;;;;5186135;28;20163;-54
2023/12/10 04:34:57;;;;;;;31.88;12.63;;;1.30;99.90;;;;;;5193522;28;20037;-53
2023/12/10 04:37:28;;;;;;;20.38;11.90;;;1.50;99.90;;;;;;5177349;28;20029;-54
2023/12/10 04:40:01;;;;;;;29.83;13.32;;;1.60;99.90;;;;;;5177584;28;20030;-48
2023/12/10 04:42:35;;;;;;;30.73;13.10;;;1.60;99.90;;;;;;5188610;28;20041;-52
2023/12/10 04:45:14;;;;;;;27.40;11.05;;;1.70;99.90;;;;;;5194330;28;20045;-50
2023/12/10 04:47:46;;;;;;;26.30;11.93;;;1.70;99.90;;;;;;5194538;28;20033;-50
2023/12/10 04:50:18;;;;;;;26.95;11.85;;;1.80;99.90;;;;;;5196952;28;20325;-54
2023/12/10 04:52:54;;;;;;;26.33;11.23;;;1.90;99.90;;;;;;5211334;28;20047;-50
2023/12/10 04:55:30;;;;;;;25.15;11.38;;;1.80;99.90;;;;;;5217417;28;20182;-49
2023/12/10 04:58:01;;;;;;;30.10;11.82;;;1.80;99.90;;;;;;5200378;28;20029;-48
2023/12/10 05:00:36;;;;;;;31.60;11.77;;;1.70;99.90;;;;;;5196934;28;20029;-49
2023/12/10 05:03:07;;;;;;;26.92;11.55;;;1.70;99.90;;;;;;5170000;28;20345;-50
2023/12/10 05:05:41;;;;;;;24.27;11.48;;;1.70;99.90;;;;;;5190288;28;20036;-49
2023/12/10 05:08:13;;;;;;;28.05;11.90;;;1.80;99.90;;;;;;5197626;28;20044;-50
2023/12/10 05:10:47;;;;;;;29.60;12.15;;;1.80;99.90;;;;;;5200176;28;20035;-50
2023/12/10 05:13:24;;;;;;;32.35;14.52;;;1.80;99.90;;;;;;5199921;28;20348;-51
2023/12/10 05:15:58;;;;;;;33.20;14.40;;;1.70;99.90;;;;;;5197647;28;20029;-51
2023/12/10 05:18:31;;;;;;;33.45;13.77;;;1.60;99.90;;;;;;5197840;28;20033;-51
2023/12/10 05:21:03;;;;;;;24.90;13.93;;;1.60;99.90;;;;;;5188116;28;21128;-51
2023/12/10 05:23:39;;;;;;;24.52;12.93;;;1.60;99.90;;;;;;5171532;28;20261;-51
2023/12/10 05:26:11;;;;;;;24.02;11.95;;;1.70;99.90;;;;;;5199122;28;20340;-51
2023/12/10 05:28:48;;;;;;;26.42;12.60;;;1.60;99.90;;;;;;5199703;28;20275;-51
2023/12/10 05:31:19;;;;;;;30.52;12.85;;;1.60;99.90;;;;;;5197480;28;20029;-51
2023/12/10 05:33:53;;;;;;;30.70;13.32;;;1.50;99.90;;;;;;5200860;28;20359;-51
2023/12/10 05:36:28;;;;;;;24.75;10.75;;;1.50;99.90;;;;;;5200461;28;20022;-51
2023/12/10 05:39:03;;;;;;;32.28;13.25;;;1.40;99.90;;;;;;5189127;28;20037;-51
2023/12/10 05:41:34;;;;;;;30.38;13.20;;;1.30;99.90;;;;;;5196115;28;20299;-51
2023/12/10 05:44:08;;;;;;;29.25;13.68;;;1.30;99.90;;;;;;5198689;28;20425;-51
2023/12/10 05:46:42;;;;;;;27.95;13.02;;;1.40;99.90;;;;;;5197810;28;20226;-51
2023/12/10 05:49:16;;;;;;;32.78;12.95;;;1.40;99.90;;;;;;5200149;28;20356;-51
2023/12/10 05:51:48;;;;;;;36.53;13.60;;;1.40;99.90;;;;;;5202360;28;20040;-50
2023/12/10 05:54:24;;;;;;;33.58;14.35;;;1.40;99.90;;;;;;5197216;28;20025;-51
2023/12/10 05:56:56;;;;;;;36.35;14.35;;;1.40;99.90;;;;;;5200209;28;20033;-50
2023/12/10 05:59:30;;;;;;;35.17;14.18;;;1.50;99.90;;;;;;5199729;28;20035;-51
2023/12/10 06:02:06;;;;;;;25.08;12.25;;;1.40;99.90;;;;;;5196028;28;20021;-51
2023/12/10 06:04:39;;;;;;;30.75;12.63;;;1.40;99.90;;;;;;5199523;28;20033;-51
2023/12/10 06:07:15;;;;;;;31.85;12.82;;;1.20;99.90;;;;;;5199078;28;20032;-51
2023/12/10 06:09:46;;;;;;;32.22;13.45;;;1.20;99.90;;;;;;5193505;28;20038;-51
2023/12/10 06:12:23;;;;;;;28.35;12.60;;;1.20;99.90;;;;;;5188563;28;20044;-51
2023/12/10 06:14:55;;;;;;;30.33;13.35;;;1.30;99.90;;;;;;5182486;28;20280;-50
2023/12/10 06:17:29;;;;;;;37.08;14.15;;;1.20;99.90;;;;;;5193964;28;20316;-51
2023/12/10 06:20:01;;;;;;;25.55;13.20;;;1.20;99.90;;;;;;5199322;28;20022;-51
2023/12/10 06:22:32;;;;;;;31.58;14.25;;;1.20;99.90;;;;;;5200899;28;20044;-51
2023/12/10 06:25:11;;;;;;;33.45;13.82;;;1.20;99.90;;;;;;5199712;28;20037;-51
2023/12/10 06:27:43;;;;;;;28.20;13.02;;;1.10;99.90;;;;;;5196657;28;20037;-50
2023/12/10 06:30:14;;;;;;;35.85;14.35;;;1.10;99.90;;;;;;5187490;28;20280;-51
2023/12/10 06:32:45;;;;;;;30.33;13.73;;;1.20;99.90;;;;;;5198547;28;20041;-50
2023/12/10 06:35:19;;;;;;;26.52;13.10;;;1.30;99.90;;;;;;5198961;28;20033;-52
2023/12/10 06:37:51;;;;;;;34.47;15.07;;;1.30;99.90;;;;;;5182328;28;20036;-52
2023/12/10 06:40:25;;;;;;;36.38;15.05;;;1.40;99.90;;;;;;5198166;28;20048;-49
2023/12/10 06:42:56;;;;;;;35.33;13.90;;;1.40;99.90;;;;;;5199502;28;20049;-52
2023/12/10 06:45:28;;;;;;;31.70;13.35;;;1.40;99.90;;;;;;5178106;28;20044;-51
2023/12/10 06:48:02;;;;;;;30.55;12.57;;;1.50;99.90;;;;;;5204424;28;20045;-50
2023/12/10 06:50:33;;;;;;;30.35;12.32;;;1.30;99.90;;;;;;5179196;28;20453;-51
2023/12/10 06:53:04;;;;;;;32.05;12.90;;;1.30;99.90;;;;;;5195526;28;20052;-51
2023/12/10 06:55:38;;;;;;;31.50;13.45;;;1.30;99.90;;;;;;5181659;28;20040;-49
2023/12/10 06:58:13;;;;;;;28.23;13.63;;;1.30;99.90;;;;;;5189157;28;20044;-49
2023/12/10 07:00:44;;;;;;;33.83;16.10;;;1.40;99.90;;;;;;5183979;28;20371;-52
2023/12/10 07:03:15;;;;;;;32.55;12.98;;;1.40;99.90;;;;;;5188013;28;20029;-51
2023/12/10 07:05:47;;;;;;;29.60;12.57;;;1.40;99.90;;;;;;5195512;28;20311;-51
2023/12/10 07:08:20;;;;;;;26.35;12.68;;;1.50;99.90;;;;;;5198218;28;20377;-50
2023/12/10 07:10:57;;;;;;;27.15;12.18;;;1.50;99.90;;;;;;5197784;28;20029;-51
2023/12/10 07:13:31;;;;;;;25.45;11.40;;;1.50;99.90;;;;;;5197812;28;20041;-50
2023/12/10 07:16:02;;;;;;;27.50;12.07;;;1.60;99.90;;;;;;5177230;28;20322;-52
2023/12/10 07:18:41;;;;;;;24.45;11.88;;;1.50;99.90;;;;;;5197026;28;20033;-49
2023/12/10 07:21:15;;;;;;;28.13;12.40;;;1.50;99.90;;;;;;5197902;28;20040;-49
2023/12/10 07:23:46;;;;;;;24.83;11.00;;;1.50;99.90;;;;;;5182604;28;20033;-51
2023/12/10 07:26:24;;;;;;;26.73;11.10;;;1.60;99.90;;;;;;5194633;28;20349;-52
2023/12/10 07:28:58;;;;;;;27.20;11.85;;;1.70;99.90;;;;;;5181339;28;20033;-51
2023/12/10 07:31:30;;;;;;;25.42;11.27;;;1.70;99.90;;;;;;5204853;28;20044;-50
2023/12/10 07:34:04;;;;;;;24.85;11.57;;;1.80;99.90;;;;;;5206411;28;20030;-50
2023/12/10 07:36:35;;;;;;;23.52;11.52;;;1.80;99.90;;;;;;5194506;28;20025;-50
2023/12/10 07:39:09;;;;;;;24.25;10.07;;;1.80;99.90;;;;;;5184597;28;20031;-50
2023/12/10 07:41:40;;;;;;;22.95;11.30;;;1.60;99.10;;;;;;5194043;28;20040;-50
2023/12/10 07:44:11;;;;;;;28.58;9.95;;;1.50;86.70;;;;;;5196680;28;20337;-49
2023/12/10 07:46:46;;;;;;;23.50;10.82;;;1.50;98.40;;;;;;5193667;28;20035;-50
2023/12/10 07:49:26;;;;;;;27.13;11.02;;;1.50;97.70;;;;;;5177532;28;20034;-50
2023/12/10 07:52:03;;;;;;;20.85;10.10;;;1.50;99.90;;;;;;5195461;28;20330;-50
2023/12/10 07:54:39;;;;;;;19.20;9.98;;;1.60;99.90;;;;;;5193709;28;20222;-50
2023/12/10 07:57:13;;;;;;;21.67;9.45;;;1.60;99.90;;;;;;5184402;28;20033;-49
2023/12/10 07:59:44;;;;;;;18.60;10.23;;;2.00;99.90;;;;;;5197176;28;20041;-50
2023/12/10 08:02:20;;;;;;;24.52;9.32;;;2.60;99.90;;;;;;5193252;28;20598;-50
2023/12/10 08:04:51;;;;;;;5.50;3.35;;;2.60;99.90;;;;;;5196350;28;20383;-49
2023/12/10 08:07:22;;;;;;;7.00;1.50;;;3.60;99.90;;;;;;5178841;28;20041;-49
2023/12/10 08:09:54;;;;;;;4.80;2.05;;;4.50;99.90;;;;;;5228489;28;20056;-49
2023/12/10 08:12:28;;;;;;;3.78;2.05;;;5.00;1.00;;;;;;5192642;28;20033;-49
2023/12/10 08:14:59;;;;;;;7.78;2.92;;;5.30;1.00;;;;;;5189464;28;20033;-48
2023/12/10 08:17:30;;;;;;;2.33;1.77;;;5.60;1.00;;;;;;5194178;28;20284;-48
2023/12/10 08:20:07;;;;;;;5.00;1.85;;;5.70;99.90;;;;;;5191709;28;20040;-48
2023/12/10 08:22:38;;;;;;;5.63;1.90;;;5.70;99.90;;;;;;5204573;28;20034;-48
2023/12/10 08:25:12;;;;;;;2.33;1.38;;;5.90;99.90;;;;;;5195819;28;20032;-48
2023/12/10 08:27:45;;;;;;;5.00;1.83;;;6.00;1.00;;;;;;5211726;28;20029;-48
2023/12/10 08:30:19;;;;;;;4.53;1.60;;;6.20;1.00;;;;;;5180510;28;20037;-47
2023/12/10 08:32:53;;;;;;;3.22;1.45;;;6.30;1.00;;;;;;5189113;28;20045;-47
2023/12/10 08:35:26;;;;;;;2.58;1.33;;;6.40;99.90;;;;;;5176285;28;20155;-47
2023/12/10 08:38:01;;;;;;;1.92;1.17;;;6.50;99.90;;;;;;5171790;28;20049;-47
2023/12/10 08:40:32;;;;;;;;;;;6.60;99.90;;;;;;5201385;28;20374;-48
2023/12/10 08:43:03;;;;;;;4.22;1.63;;;6.50;99.90;;;;;;5189463;28;19920;-48
2023/12/10 08:45:34;;;;;;;1.80;1.10;;;6.50;99.90;;;;;;5187513;28;20286;-48
2023/12/10 08:48:05;;;;;;;2.78;1.65;;;6.60;99.90;;;;;;5191347;28;20291;-48
2023/12/10 08:50:37;;;;;;;2.80;1.30;;;6.60;99.90;;;;;;5195958;28;20040;-48
2023/12/10 08:53:08;;;;;;;5.30;2.13;;;6.70;99.90;;;;;;5196894;28;20378;-48
2023/12/10 08:55:39;;;;;;;2.58;1.70;;;6.70;95.20;;;;;;5217963;28;20210;-48
2023/12/10 08:58:11;;;;;;;3.78;1.83;;;6.70;96.80;;;;;;5190809;28;20329;-48
2023/12/10 09:00:42;;;;;;;3.00;1.65;;;6.80;57.50;;;;;;5196055;28;20029;-48
2023/12/10 09:03:14;;;;;;;3.60;1.52;;;6.80;57.00;;;;;;5180197;28;20033;-48
2023/12/10 09:05:45;;;;;;;9.25;3.55;;;6.80;30.30;;;;;;5207627;28;20165;-49
2023/12/10 09:08:17;;;;;;;6.25;2.55;;;6.90;1.00;;;;;;5195977;28;20402;-48
2023/12/10 09:10:48;;;;;;;5.45;2.30;;;7.00;1.00;;;;;;5190181;28;20040;-48
2023/12/10 09:13:19;;;;;;;3.45;1.75;;;7.00;1.00;;;;;;5173557;28;20364;-48
2023/12/10 09:15:51;;;;;;;2.95;1.65;;;6.90;1.00;;;;;;5187739;28;20029;-48
2023/12/10 09:18:22;;;;;;;4.55;1.90;;;7.00;1.00;;;;;;5192537;28;20104;-47
2023/12/10 09:20:56;;;;;;;4.72;1.25;;;7.00;1.00;;;;;;5177288;28;20428;-48
2023/12/10 09:23:27;;;;;;;;;;;7.10;1.00;;;;;;5193728;28;20033;-47
2023/12/10 09:25:59;;;;;;;5.35;1.55;;;7.10;1.00;;;;;;5189404;28;19913;-47
2023/12/10 09:28:30;;;;;;;2.45;1.70;;;7.20;1.00;;;;;;5192516;28;20217;-47
2023/12/10 09:31:01;;;;;;;3.47;1.92;;;7.20;1.00;;;;;;5182930;28;20025;-46
2023/12/10 09:33:33;;;;;;;2.17;1.30;;;7.20;1.00;;;;;;5192052;28;20341;-46
2023/12/10 09:36:05;;;;;;;1.30;1.10;;;7.20;1.00;;;;;;5195831;28;20325;-46
2023/12/10 09:38:36;;;;;;;2.78;1.40;;;7.30;1.00;;;;;;5193966;28;20025;-46
2023/12/10 09:41:09;;;;;;;1.58;0.80;;;7.30;1.00;;;;;;5200636;28;20358;-46
2023/12/10 09:43:41;;;;;;;4.13;1.15;;;7.40;1.00;;;;;;5188153;28;20226;-46
2023/12/10 09:46:13;;;;;;;3.08;1.27;;;7.40;1.00;;;;;;5203305;28;20213;-46
2023/12/10 09:48:50;;;;;;;1.40;1.10;;;7.40;1.00;;;;;;5197675;28;20199;-45
2023/12/10 09:51:21;;;;;;;2.40;1.42;;;7.60;1.00;;;;;;5202753;28;20041;-46
2023/12/10 09:53:52;;;;;;;1.05;0.85;;;7.70;1.00;;;;;;5200187;28;20032;-45
2023/12/10 09:56:24;;;;;;;2.78;0.90;;;7.80;1.00;;;;;;5198710;28;20360;-45
2023/12/10 09:58:58;;;;;;;3.78;1.20;;;7.90;1.00;;;;;;5215407;28;20088;-45
2023/12/10 10:01:32;;;;;;;1.38;1.05;;;7.90;1.00;;;;;;5176681;28;20341;-45
2023/12/10 10:04:03;;;;;;;1.90;0.70;;;7.90;1.00;;;;;;5181287;28;20048;-44
2023/12/10 10:06:35;;;;;;;1.45;1.00;;;7.90;99.90;;;;;;5182671;28;20217;-45
2023/12/10 10:09:06;;;;;;;2.65;0.90;;;7.90;1.00;;;;;;5206421;28;20032;-43
2023/12/10 10:11:38;;;;;;;2.08;1.02;;;7.90;99.90;;;;;;5210186;28;20021;-41
2023/12/10 10:14:10;;;;;;;1.20;0.90;;;8.00;99.90;;;;;;5207294;28;20025;-39
2023/12/10 10:16:49;;;;;;;5.72;1.25;;;7.90;99.90;;;;;;5200627;28;20055;-39
2023/12/10 10:19:20;;;;;;;4.07;1.42;;;7.90;99.90;;;;;;5196151;28;20044;-38
2023/12/10 10:21:54;;;;;;;2.50;1.02;;;8.00;99.90;;;;;;5187602;28;20040;-38
2023/12/10 10:24:28;;;;;;;1.67;1.30;;;7.90;99.90;;;;;;5178429;28;20267;-38
2023/12/10 10:27:02;;;;;;;2.30;1.33;;;8.00;99.90;;;;;;5187497;28;20536;-39
2023/12/10 10:29:33;;;;;;;1.33;1.23;;;8.00;99.90;;;;;;5209896;28;20045;-39
2023/12/10 10:32:05;;;;;;;1.35;1.17;;;8.10;99.90;;;;;;5204947;28;20037;-39
2023/12/10 10:34:36;;;;;;;4.60;1.05;;;8.10;99.90;;;;;;5201120;28;20029;-39
2023/12/10 10:37:10;;;;;;;2.90;1.27;;;8.20;99.90;;;;;;5178311;28;20034;-40
2023/12/10 10:39:42;;;;;;;5.75;1.23;;;8.20;99.90;;;;;;5210288;28;20035;-40
2023/12/10 10:42:13;;;;;;;2.28;1.50;;;8.20;99.90;;;;;;5209011;28;20039;-41
2023/12/10 10:44:46;;;;;;;5.00;1.58;;;8.20;99.90;;;;;;5208512;28;20238;-41
2023/12/10 10:47:20;;;;;;;2.88;1.35;;;8.10;99.90;;;;;;5205464;28;20270;-42
2023/12/10 10:49:57;;;;;;;6.80;1.15;;;8.20;99.90;;;;;;5211615;28;20033;-42
2023/12/10 10:52:32;;;;;;;3.70;1.77;;;8.20;99.90;;;;;;5205006;28;20037;-43
2023/12/10 10:55:06;;;;;;;5.38;1.50;;;8.20;99.90;;;;;;5198034;28;20029;-44
2023/12/10 10:57:40;;;;;;;6.13;1.63;;;8.20;99.90;;;;;;5186994;28;20357;-44
2023/12/10 11:00:18;;;;;;;;;;;8.20;99.90;;;;;;5207124;28;20033;-45
2023/12/10 11:03:02;;;;;;;2.33;1.05;;;8.30;99.90;;;;;;5209259;28;19921;-46
2023/12/10 11:05:34;;;;;;;2.50;1.20;;;8.20;99.90;;;;;;5208817;28;20029;-45
2023/12/10 11:08:08;;;;;;;5.65;1.30;;;8.20;99.90;;;;;;5206694;28;20044;-43
2023/12/10 11:10:50;;;;;;;5.45;1.67;;;8.20;99.90;;;;;;5204531;28;20048;-40
2023/12/10 11:13:44;;;;;;;5.22;1.60;;;8.40;99.90;;;;;;5179503;28;20025;-37
2023/12/10 11:16:16;;;;;;;5.38;1.40;;;8.60;99.90;;;;;;5209876;28;20016;-37
2023/12/10 11:18:57;;;;;;;5.00;1.40;;;8.80;99.90;;;;;;5210419;28;20043;-37
2023/12/10 11:21:29;;;;;;;2.45;1.52;;;8.90;99.90;;;;;;5210936;28;20480;-37
2023/12/10 11:24:00;;;;;;;3.85;1.77;;;9.30;99.90;;;;;;5209607;28;20033;-39
2023/12/10 11:26:32;;;;;;;2.88;1.70;;;9.50;59.60;;;;;;5209383;28;20035;-39
2023/12/10 11:29:03;;;;;;;2.15;1.25;;;9.50;29.90;;;;;;5202716;28;20033;-38
2023/12/10 11:31:37;;;;;;;2.80;1.38;;;9.80;1.00;;;;;;5205049;28;20068;-37
2023/12/10 11:34:10;;;;;;;5.38;1.52;;;9.70;1.00;;;;;;5205112;28;20025;-37
2023/12/10 11:36:48;;;;;;;8.13;1.55;;;9.50;1.00;;;;;;5207701;28;20250;-36
2023/12/10 11:39:19;;;;;;;8.32;1.65;;;9.60;1.00;;;;;;5210397;28;20036;-36
2023/12/10 11:41:51;;;;;;;7.47;1.85;;;9.40;1.00;;;;;;5205642;28;20032;-36
2023/12/10 11:44:22;;;;;;;3.70;1.77;;;9.30;1.00;;;;;;5203061;28;20033;-36
2023/12/10 11:46:58;;;;;;;9.07;1.83;;;9.30;1.00;;;;;;5200133;28;20029;-36
2023/12/10 11:49:33;;;;;;;3.10;1.35;;;9.20;1.00;;;;;;5206602;28;20029;-36
2023/12/10 11:52:05;;;;;;;6.07;1.60;;;9.30;1.00;;;;;;5190129;28;20057;-36
2023/12/10 11:54:36;;;;;;;2.88;1.20;;;9.30;1.00;;;;;;5208304;28;20032;-36
2023/12/10 11:57:11;;;;;;;3.95;1.60;;;9.40;1.00;;;;;;5206900;28;20765;-36
2023/12/10 11:59:48;;;;;;;3.00;1.30;;;9.30;1.00;;;;;;5205375;28;20531;-36
2023/12/10 12:02:25;;;;;;;3.65;1.65;;;9.10;1.00;;;;;;5187820;28;20041;-36
2023/12/10 12:04:56;;;;;;;6.93;1.45;;;9.10;1.00;;;;;;5204346;28;20033;-35
2023/12/10 12:07:31;;;;;;;4.50;1.27;;;9.10;1.00;;;;;;5206062;28;20310;-36
2023/12/10 12:10:03;;;;;;;3.33;1.45;;;9.20;1.00;;;;;;5206850;28;20204;-36
2023/12/10 12:12:42;;;;;;;4.88;1.63;;;9.00;1.00;;;;;;5206321;28;20336;-36
2023/12/10 12:15:19;;;;;;;3.15;1.38;;;8.90;1.00;;;;;;5207976;28;20039;-35
2023/12/10 12:17:52;;;;;;;6.18;1.60;;;9.10;1.00;;;;;;5192477;28;20026;-36
2023/12/10 12:20:29;;;;;;;3.85;1.67;;;9.40;1.00;;;;;;5189461;28;20214;-36
2023/12/10 12:23:00;;;;;;;4.95;1.73;;;9.40;1.00;;;;;;5172474;28;20237;-35
2023/12/10 12:25:37;;;;;;;3.67;1.38;;;9.70;1.00;;;;;;5203849;28;20055;-36
2023/12/10 12:28:09;;;;;;;5.75;1.63;;;9.90;1.00;;;;;;5207479;28;20041;-36
2023/12/10 12:30:43;;;;;;;3.60;1.30;;;9.50;1.00;;;;;;5203235;28;20021;-36
2023/12/10 12:33:16;;;;;;;9.00;1.55;;;9.00;1.00;;;;;;5205481;28;20479;-36
2023/12/10 12:35:47;;;;;;;2.88;1.00;;;9.10;1.00;;;;;;5178105;28;20037;-36
2023/12/10 12:38:19;;;;;;;6.68;1.63;;;9.40;1.00;;;;;;5183516;28;20056;-36
2023/12/10 12:41:00;;;;;;;3.13;1.02;;;10.20;1.00;;;;;;5208410;28;20054;-36
2023/12/10 12:43:37;;;;;;;6.13;1.45;;;10.10;1.00;;;;;;5205277;28;20041;-35
2023/12/10 12:46:08;;;;;;;7.55;1.38;;;9.40;1.00;;;;;;5220472;28;20360;-36
2023/12/10 12:48:40;;;;;;;3.70;1.58;;;9.00;99.90;;;;;;5206930;28;20055;-36
2023/12/10 12:51:11;;;;;;;2.92;1.27;;;8.70;99.90;;;;;;5205165;28;20017;-35
2023/12/10 12:53:49;;;;;;;2.15;1.00;;;8.70;1.00;;;;;;5193476;28;20321;-36
2023/12/10 12:56:27;;;;;;;8.02;1.77;;;8.60;1.00;;;;;;5176391;28;20033;-36
2023/12/10 12:59:01;;;;;;;5.97;1.38;;;8.70;1.00;;;;;;5190110;28;20217;-35
2023/12/10 13:01:33;;;;;;;2.58;1.20;;;9.20;1.00;;;;;;5201447;28;20039;-35
2023/12/10 13:04:04;;;;;;;6.60;2.13;;;9.50;1.00;;;;;;5201988;28;20231;-36
2023/12/10 13:06:35;;;;;;;4.18;1.80;;;9.60;1.00;;;;;;5204849;28;20040;-36
2023/12/10 13:09:07;;;;;;;4.88;1.55;;;10.10;1.00;;;;;;5206470;28;20236;-36
2023/12/10 13:11:38;;;;;;;5.57;1.90;;;10.50;99.90;;;;;;5186655;28;20087;-36
2023/12/10 13:14:12;;;;;;;4.60;1.85;;;11.00;99.90;;;;;;5192593;28;20115;-36
2023/12/10 13:16:43;;;;;;;2.92;1.52;;;11.00;99.90;;;;;;5206459;28;20368;-36
2023/12/10 13:19:18;;;;;;;6.18;1.70;;;10.90;99.90;;;;;;5206856;28;20034;-36
2023/12/10 13:21:51;;;;;;;8.15;1.92;;;11.00;99.90;;;;;;5213899;28;20051;-36